Claflin, Kansas
Current Conditions -  °F | °C
As of 5:15 AM on Thursday 23 Oct 2014 (Local Time) from KGBD Reporting Station
Overcast Overcast  
Wind Chill: 61°   Ceiling: 2300
Heat Index: 61°   Visibility: 7mi
Dew Point: 55°   Wind: 7mph
Humidity: 82%   Direction: 180°S
Pressure: 30.06"   Gusts: NA
Location:  38.53°N, 98.53°W
Report Text: KGBD 231015Z AUTO 18006KT 7SM OVC023 16/13 A3006 RMK AO1
Loading
Personal Weather Stations






























Interactive Weather Map
Tropical Storm Tracking
New forecast layout! Learn more

10-Day Weather Forecast

Advertisements
Track Severe Weather on mobile